FOREST GROVE OR US AGRIMET current weather conditions

sailwx.info

Wind from 233 at 4 knots gusting 10

Air temperature 6.6° C
Dewpoint 5.4° C

Last reported at 2018-Feb-18 02:30 UTC.
Time now 2018-Feb-18 03:18 UTC

Location: N 45°33' W 123°05'.
View on Google Maps.

See reports from other nearby stations

  
Tides and Currents Weather Stations Pressure Air Temp Water Temp Dewpoint Dewpoint Depression Visibility Wind Speed Wind Dir Waves Ship Positions
date/time (UTC)wind fromknots sea level pressurealtimeterstation pressurevisibilityair tempwater tempwave heightnotes
2018-Feb-18 02:30 233 4 gusting 10 6.6
2018-Feb-18 02:15 248 3 gusting 8 6.9
2018-Feb-18 02:00 232 4 gusting 9 7.4
2018-Feb-18 01:30 248 3 gusting 8 7.7
2018-Feb-18 01:15 234 3 gusting 8 8.3
2018-Feb-18 01:00 261 4 gusting 11 8.6
2018-Feb-18 00:45 265 4 gusting 9 8.7
2018-Feb-18 00:30 267 4 gusting 15 9.2
2018-Feb-18 00:15 272 5 gusting 14 9.4
2018-Feb-18 00:00 241 3 gusting 10 9.6
2018-Feb-17 23:45 210 5 gusting 14 9.5
2018-Feb-17 23:30 200 6 gusting 15 9.9
2018-Feb-17 23:15 224 3 gusting 12 10.0
2018-Feb-17 23:00 229 2 gusting 5 10.9
2018-Feb-17 22:45 223 4 gusting 11 10.8
2018-Feb-17 22:30 242 3 gusting 12 11.3
2018-Feb-17 22:15 228 3 gusting 9 11.5
2018-Feb-17 22:00 201 4 gusting 16 11.5
2018-Feb-17 21:45 214 2 gusting 11 11.4
2018-Feb-17 21:30 215 5 gusting 12 11.3
2018-Feb-17 21:15 203 7 gusting 14 10.9
2018-Feb-17 21:00 193 8 gusting 17 11.1
2018-Feb-17 20:45 208 6 gusting 15 10.8
2018-Feb-17 20:30 218 5 gusting 16 10.7
2018-Feb-17 20:15 213 5 gusting 15 10.9
2018-Feb-17 20:00 213 7 gusting 21 11.1
2018-Feb-17 19:45 211 9 gusting 19 11.4
2018-Feb-17 19:30 205 7 gusting 16 10.9
2018-Feb-17 19:15 202 7 gusting 16 10.9
2018-Feb-17 19:00 208 6 gusting 16 10.6
2018-Feb-17 18:45 214 7 gusting 18 10.1
2018-Feb-17 18:30 207 8 gusting 20 10.1
2018-Feb-17 18:15 202 9 gusting 20 9.8
2018-Feb-17 18:00 202 8 gusting 15 9.5
2018-Feb-17 17:45 206 10 gusting 19 9.4
2018-Feb-17 17:30 202 10 gusting 23 9.5
2018-Feb-17 17:15 203 8 gusting 17 9.1
2018-Feb-17 17:00 201 9 gusting 19 8.9
2018-Feb-17 16:45 200 7 gusting 14 8.7
2018-Feb-17 16:30 205 6 gusting 16 8.7
2018-Feb-17 16:15 208 6 gusting 11 8.5
2018-Feb-17 16:00 197 6 gusting 11 8.4
2018-Feb-17 15:45 194 5 gusting 12 8.4
2018-Feb-17 15:30 195 6 gusting 12 8.3
2018-Feb-17 15:15 189 6 gusting 13 8.1
2018-Feb-17 15:00 188 5 gusting 11 8.1
2018-Feb-17 14:45 198 4 gusting 11 8.2
2018-Feb-17 14:30 202 5 gusting 11 8.3
2018-Feb-17 14:15 194 5 gusting 10 8.2
2018-Feb-17 14:00 191 6 gusting 14 5.4 8.1
2018-Feb-17 13:45 187 6 gusting 12 8.0
2018-Feb-17 13:30 192 7 gusting 14 8.0
2018-Feb-17 13:15 201 6 gusting 14 8.2
2018-Feb-17 13:00 196 7 gusting 14 5.4 8.1
2018-Feb-17 12:45 191 6 gusting 13 8.0
2018-Feb-17 12:30 196 6 gusting 14 8.0
2018-Feb-17 12:15 191 6 gusting 14 7.9
2018-Feb-17 12:00 189 7 gusting 12 5.4 8.0
2018-Feb-17 11:45 190 6 gusting 13 7.8
2018-Feb-17 11:30 191 5 gusting 10 7.8
2018-Feb-17 11:15 193 6 gusting 10 7.8
2018-Feb-17 11:00 202 5 gusting 11 5.4 7.8
2018-Feb-17 10:45 202 5 gusting 15 7.9
2018-Feb-17 10:30 206 6 gusting 11 7.9
2018-Feb-17 10:15 203 6 gusting 13 8.0
2018-Feb-17 10:00 199 4 gusting 8 7.9
2018-Feb-17 09:45 197 5 gusting 11 7.9
2018-Feb-17 09:30 196 6 gusting 11 7.8
2018-Feb-17 09:15 199 5 gusting 10 7.8
2018-Feb-17 09:00 203 5 gusting 11 7.8
2018-Feb-17 08:45 204 5 gusting 11 7.9
2018-Feb-17 08:30 202 5 gusting 11 7.9
2018-Feb-17 08:15 204 4 gusting 10 7.9
2018-Feb-17 08:00 203 5 gusting 10 5.4 7.9
2018-Feb-17 07:45 208 5 gusting 13 8.0
2018-Feb-17 07:30 208 5 gusting 12 8.1
2018-Feb-17 07:15 211 4 gusting 10 8.2
2018-Feb-17 07:00 213 5 gusting 11 5.4 8.3
2018-Feb-17 06:45 209 5 gusting 11 8.3
2018-Feb-17 06:30 207 6 gusting 11 8.2
2018-Feb-17 06:15 207 6 gusting 12 8.2
2018-Feb-17 06:00 204 5 gusting 11 8.2
2018-Feb-17 05:45 203 5 gusting 11 8.2
2018-Feb-17 05:30 207 5 gusting 11 8.3
2018-Feb-17 05:15 213 5 gusting 11 8.3
2018-Feb-17 05:00 206 5 gusting 11 8.5
2018-Feb-17 04:45 202 5 gusting 9 8.3
2018-Feb-17 04:30 201 5 gusting 10 8.6
2018-Feb-17 04:15 205 6 gusting 12 8.7
2018-Feb-17 04:00 201 6 gusting 11 8.8
2018-Feb-17 03:45 200 5 gusting 11 9.1
2018-Feb-17 03:30 194 4 gusting 8 9.3
2018-Feb-17 03:15 194 5 gusting 11 9.4
2018-Feb-17 03:00 203 5 gusting 10 9.6
2018-Feb-17 02:45 207 5 gusting 11 9.6
2018-Feb-17 02:30 204 5 gusting 10 9.7
2018-Feb-17 02:15 203 6 gusting 11 9.7
2018-Feb-17 02:00 199 5 gusting 10 9.8
2018-Feb-17 01:45 199 4 gusting 9 9.8
2018-Feb-17 01:30 202 4 gusting 9 9.9
2018-Feb-17 01:15 202 4 gusting 11 10.2
2018-Feb-17 01:00 202 5 gusting 10 10.5
2018-Feb-17 00:45 199 6 gusting 11 10.5
2018-Feb-17 00:30 207 4 gusting 10 10.6
2018-Feb-17 00:15 194 5 gusting 11 10.6
2018-Feb-17 00:00 199 5 gusting 10 10.5
2018-Feb-16 23:45 200 5 gusting 10 10.7
2018-Feb-16 23:30 205 5 gusting 9 11.0
2018-Feb-16 23:15 201 7 gusting 13 10.7
2018-Feb-16 23:00 194 5 gusting 11 10.9
2018-Feb-16 22:45 203 6 gusting 12 10.7
2018-Feb-16 22:30 203 5 gusting 11 11.4
2018-Feb-16 22:15 192 6 gusting 12 10.5
2018-Feb-16 22:00 204 6 gusting 11 10.6
2018-Feb-16 21:45 193 6 gusting 12 11.2
2018-Feb-16 21:30 192 5 gusting 10 10.4
2018-Feb-16 21:15 186 6 gusting 11 9.8
2018-Feb-16 21:00 200 5 gusting 11 9.6
2018-Feb-16 20:45 203 5 gusting 11 9.4
2018-Feb-16 20:30 202 4 gusting 9 9.3
2018-Feb-16 20:15 201 4 gusting 10 9.1
2018-Feb-16 20:00 205 5 gusting 11 8.6
2018-Feb-16 19:45 206 5 gusting 11 8.2
2018-Feb-16 19:30 211 4 gusting 12 8.2
2018-Feb-16 19:15 209 5 gusting 11 7.5
2018-Feb-16 19:00 206 4 gusting 9 7.1
2018-Feb-16 18:45 213 4 gusting 11 6.9
2018-Feb-16 18:30 208 4 gusting 10 6.9
2018-Feb-16 18:15 213 5 gusting 14 6.8
2018-Feb-16 18:00 214 4 gusting 11 6.6
2018-Feb-16 17:45 210 3 gusting 8 6.4
2018-Feb-16 17:30 211 4 gusting 9 6.2
2018-Feb-16 17:15 204 4 gusting 9 6.1
2018-Feb-16 17:00 218 2 gusting 6 6.0
2018-Feb-16 16:45 219 1 gusting 6 5.8
2018-Feb-16 16:30 231 1 gusting 8 5.7
2018-Feb-16 16:15 221 1 gusting 5 5.7
2018-Feb-16 16:00 219 2 gusting 6 5.6
2018-Feb-16 15:45 209 2 gusting 4 5.5
2018-Feb-16 15:30 209 2 gusting 7 5.4
2018-Feb-16 15:15 212 2 gusting 8 5.5
2018-Feb-16 15:00 204 2 gusting 8 5.4
2018-Feb-16 14:45 204 2 gusting 5 5.4
2018-Feb-16 14:30 209 1 gusting 4 5.4
2018-Feb-16 14:15 206 1 gusting 4 5.4
2018-Feb-16 14:00 193 1 gusting 4 4.3 5.4
2018-Feb-16 13:45 194 0 gusting 2 5.4
2018-Feb-16 13:30 228 1 gusting 6 5.5
2018-Feb-16 13:15 219 2 gusting 7 5.5
2018-Feb-16 13:00 205 3 gusting 6 5.4
2018-Feb-16 12:45 205 2 gusting 5 5.4
2018-Feb-16 12:30 202 1 gusting 4 5.4
2018-Feb-16 12:15 202 1 gusting 3 5.3
2018-Feb-16 12:00 204 0 gusting 3 5.4 5.3
2018-Feb-16 11:45 213 1 gusting 3 5.4
2018-Feb-16 11:30 194 3 gusting 5 5.4
2018-Feb-16 11:15 199 1 gusting 3 5.3
2018-Feb-16 11:00 194 1 gusting 3 5.1
2018-Feb-16 10:45 295 0 gusting 1 4.6
2018-Feb-16 10:30 149 1 gusting 2 4.4
2018-Feb-16 10:15 114 1 gusting 1 4.2
2018-Feb-16 10:00 112 1 gusting 2 5.4 4.5
2018-Feb-16 09:45 105 0 gusting 1 4.6
2018-Feb-16 09:30 066 0 gusting 0 4.5
2018-Feb-16 09:15 345 0 gusting 1 4.4
2018-Feb-16 09:00 332 0 gusting 2 5.4 4.7
2018-Feb-16 08:45 169 0 gusting 1 4.5
2018-Feb-16 08:30 130 0 gusting 1 4.7
2018-Feb-16 08:15 185 0 gusting 1 4.6
2018-Feb-16 08:00 003 0 gusting 1 4.5
2018-Feb-16 07:45 060 0 gusting 1 4.3
2018-Feb-16 07:30 038 0 gusting 1 4.4
2018-Feb-16 07:15 077 0 gusting 1 4.6
2018-Feb-16 07:00 284 0 gusting 2 4.7
2018-Feb-16 06:45 256 1 gusting 2 4.8
2018-Feb-16 06:30 229 0 gusting 1 5.1
2018-Feb-16 06:15 5.1
2018-Feb-16 06:00 098 0 gusting 0 5.1
2018-Feb-16 05:45 104 0 gusting 0 5.3
2018-Feb-16 05:30 045 0 gusting 1 5.1
2018-Feb-16 05:15 061 0 gusting 1 5.0
2018-Feb-16 05:00 186 0 gusting 2 5.2
2018-Feb-16 04:45 161 0 gusting 2 5.3
2018-Feb-16 04:30 353 0 gusting 2 5.8
2018-Feb-16 04:15 5.9
2018-Feb-16 04:00 278 0 gusting 1 6.0
2018-Feb-16 03:45 278 0 gusting 1 6.2
2018-Feb-16 03:30 257 0 gusting 1 6.4
2018-Feb-16 03:15 246 1 gusting 2 6.6
2018-Feb-16 03:00 260 1 gusting 3 6.3